Time;durP1;ratioP1;P1;durP2;ratioP2;P2;SDS_P1;SDS_P2;PMS_P1;PMS_P2;Temp;Humidity;BMP_temperature;BMP_pressure;BME280_temperature;BME280_humidity;BME280_pressure;Samples;Min_cycle;Max_cycle;Signal;HPM_P1;HPM_P2
2022/03/09 00:00:02;;;;;;;;;;;;;;;-4.45;100.00;96281.19;1030607;28;19932;-70
2022/03/09 00:00:33;;;;;;;;;;;;;;;-4.44;100.00;96280.22;1029789;28;19924;-71
2022/03/09 00:01:03;;;;;;;;;;;;;;;-4.45;100.00;96283.75;1026464;28;20454;-70
2022/03/09 00:01:33;;;;;;;;;;;;;;;-4.45;100.00;96281.97;1026922;28;19969;-71
2022/03/09 00:02:04;;;;;;;;;;;;;;;-4.43;100.00;96281.81;1029497;28;19922;-71
2022/03/09 00:02:35;;;;;;;;;;;;;;;-4.42;100.00;96278.31;1030540;28;20004;-70
2022/03/09 00:03:05;;;;;;;;;;;;;;;-4.42;100.00;96276.56;1034743;28;19918;-71
2022/03/09 00:03:35;;;;;;;;;;;;;;;-4.42;100.00;96283.44;1034740;28;20374;-70
2022/03/09 00:04:05;;;;;;;;;;;;;;;-4.46;100.00;96279.56;1030687;28;19921;-71
2022/03/09 00:04:36;;;;;;;;;;;;;;;-4.48;100.00;96281.50;1026555;28;19922;-70
2022/03/09 00:05:06;;;;;;;;;;;;;;;-4.52;100.00;96284.34;1030921;28;19913;-70
2022/03/09 00:05:36;;;;;;;;;;;;;;;-4.54;100.00;96286.25;1031534;28;19922;-71
2022/03/09 00:06:07;;;;;;;;;;;;;;;-4.59;100.00;96285.94;1034279;28;20333;-70
2022/03/09 00:06:37;;;;;;;;;;;;;;;-4.67;100.00;96285.88;1035151;28;19917;-70
2022/03/09 00:07:07;;;;;;;;;;;;;;;-4.70;100.00;96286.19;1032601;28;19913;-70
2022/03/09 00:07:38;;;;;;;;;;;;;;;-4.71;100.00;96279.47;1028184;28;19922;-72
2022/03/09 00:08:08;;;;;;;;;;;;;;;-4.73;100.00;96291.63;1035256;28;19928;-70
2022/03/09 00:08:41;;;;;;;;;;;;;;;-4.73;100.00;96286.50;1026780;28;19922;-71
2022/03/09 00:09:13;;;;;;;;;;;;;;;-4.76;100.00;96297.06;1023363;28;20055;-71
2022/03/09 00:09:43;;;;;;;;;;;;;;;-4.72;100.00;96295.81;1026984;28;19922;-71
2022/03/09 00:10:14;;;;;;;;;;;;;;;-4.69;100.00;96287.81;1027677;28;19937;-70
2022/03/09 00:10:44;;;;;;;;;;;;;;;-4.64;100.00;96289.91;1030386;28;19918;-71
2022/03/09 00:11:15;;;;;;;;;;;;;;;-4.64;100.00;96290.69;1022676;29;19948;-71
2022/03/09 00:11:45;;;;;;;;;;;;;;;-4.62;100.00;96291.38;1022980;29;19922;-70
2022/03/09 00:12:18;;;;;;;;;;;;;;;-4.66;100.00;96287.50;1022868;28;19922;-70
2022/03/09 00:12:48;;;;;;;;;;;;;;;-4.68;100.00;96291.19;1027300;28;19953;-72
2022/03/09 00:13:18;;;;;;;;;;;;;;;-4.68;100.00;96298.84;1034844;28;19910;-70
2022/03/09 00:13:49;;;;;;;;;;;;;;;-4.69;100.00;96298.06;1031284;28;19916;-71
2022/03/09 00:14:19;;;;;;;;;;;;;;;-4.63;100.00;96286.38;1030743;28;20339;-71
2022/03/09 00:14:49;;;;;;;;;;;;;;;-4.65;100.00;96293.44;1030590;28;19914;-70
2022/03/09 00:15:20;;;;;;;;;;;;;;;-4.63;100.00;96292.28;1030701;28;19913;-71
2022/03/09 00:15:50;;;;;;;;;;;;;;;-4.82;100.00;96261.84;1034752;28;19963;-71
2022/03/09 00:16:21;;;;;;;;;;;;;;;-4.59;100.00;96293.63;1035840;28;19989;-70
2022/03/09 00:16:51;;;;;;;;;;;;;;;-4.58;100.00;96294.41;1034750;28;19936;-72
2022/03/09 00:17:21;;;;;;;;;;;;;;;-4.64;100.00;96295.03;1034653;28;20394;-71
2022/03/09 00:17:54;;;;;;;;;;;;;;;-4.62;100.00;96293.91;1034882;28;20359;-70
2022/03/09 00:18:27;;;;;;;;;;;;;;;-4.61;100.00;96294.72;1038913;28;19914;-70
2022/03/09 00:18:58;;;;;;;;;;;;;;;-4.62;100.00;96288.81;1038601;28;20375;-70
2022/03/09 00:19:28;;;;;;;;;;;;;;;-4.58;100.00;96295.22;1034878;28;20020;-71
2022/03/09 00:19:58;;;;;;;;;;;;;;;-4.55;100.00;96289.78;1026544;28;19907;-71
2022/03/09 00:20:29;;;;;;;;;;;;;;;-4.56;100.00;96295.03;1018118;29;20416;-70
2022/03/09 00:20:59;;;;;;;;;;;;;;;-4.54;100.00;96293.94;1018435;29;19915;-70
2022/03/09 00:21:29;;;;;;;;;;;;;;;-4.54;100.00;96291.38;1022609;29;19918;-72
2022/03/09 00:21:59;;;;;;;;;;;;;;;-4.50;100.00;96291.88;1030480;28;20358;-72
2022/03/09 00:22:30;;;;;;;;;;;;;;;-4.52;100.00;96299.72;1026558;28;19914;-71
2022/03/09 00:23:00;;;;;;;;;;;;;;;-4.47;100.00;96290.75;1026378;28;19914;-70
2022/03/09 00:23:30;;;;;;;;;;;;;;;-4.50;100.00;96295.22;1030668;28;20037;-70
2022/03/09 00:24:03;;;;;;;;;;;;;;;-4.48;100.00;96300.22;1030477;28;20360;-71
2022/03/09 00:24:34;;;;;;;;;;;;;;;-4.52;100.00;96291.25;1026406;28;19921;-71
2022/03/09 00:25:04;;;;;;;;;;;;;;;-4.52;100.00;96294.59;1026640;28;20361;-72
2022/03/09 00:25:34;;;;;;;;;;;;;;;-4.54;100.00;96295.69;1026676;28;19906;-72
2022/03/09 00:26:05;;;;;;;;;;;;;;;-4.56;100.00;96300.16;1030608;28;19921;-71
2022/03/09 00:26:36;;;;;;;;;;;;;;;-4.59;100.00;96303.06;1030892;28;20064;-72
2022/03/09 00:27:06;;;;;;;;;;;;;;;-4.64;100.00;96306.06;1026820;28;19914;-72
2022/03/09 00:27:40;;;;;;;;;;;;;;;-4.67;100.00;96306.38;1030624;28;19910;-70
2022/03/09 00:28:11;;;;;;;;;;;;;;;-4.72;100.00;96303.47;1031239;28;20315;-72
2022/03/09 00:28:41;;;;;;;;;;;;;;;-4.71;100.00;96302.50;1035486;28;20353;-72
2022/03/09 00:29:11;;;;;;;;;;;;;;;-4.75;100.00;96303.78;1038857;28;19925;-71
2022/03/09 00:29:41;;;;;;;;;;;;;;;-4.77;100.00;96306.47;1034582;28;19910;-72
2022/03/09 00:30:12;;;;;;;;;;;;;;;-4.76;100.00;96309.88;1034844;28;19975;-72
2022/03/09 00:30:42;;;;;;;;;;;;;;;-4.78;100.00;96298.97;1030032;28;19977;-71
2022/03/09 00:31:12;;;;;;;;;;;;;;;-4.79;100.00;96305.06;1031168;28;20586;-70
2022/03/09 00:31:43;;;;;;;;;;;;;;;-4.80;100.00;96303.44;1035420;28;20004;-71
2022/03/09 00:32:14;;;;;;;;;;;;;;;-4.81;100.00;96309.50;1031447;28;20371;-73
2022/03/09 00:32:44;;;;;;;;;;;;;;;-4.79;100.00;96300.72;1035204;28;19949;-71
2022/03/09 00:33:15;;;;;;;;;;;;;;;-4.79;100.00;96305.84;1030930;28;19926;-71
2022/03/09 00:33:45;;;;;;;;;;;;;;;-4.73;100.00;96306.97;1031231;28;20299;-71
2022/03/09 00:34:15;;;;;;;;;;;;;;;-4.75;100.00;96306.34;1030957;28;19922;-70
2022/03/09 00:34:46;;;;;;;;;;;;;;;-4.75;100.00;96301.22;1026912;28;19918;-73
2022/03/09 00:35:16;;;;;;;;;;;;;;;-4.74;100.00;96305.38;1030890;28;19922;-70
2022/03/09 00:35:46;;;;;;;;;;;;;;;-4.73;100.00;96301.84;1030993;28;19922;-72
2022/03/09 00:36:16;;;;;;;;;;;;;;;-4.69;100.00;96297.22;1034889;28;20136;-70
2022/03/09 00:36:47;;;;;;;;;;;;;;;-4.73;100.00;96304.41;1034890;28;19917;-71
2022/03/09 00:37:17;;;;;;;;;;;;;;;-4.75;100.00;96303.78;1030884;28;20299;-69
2022/03/09 00:37:47;;;;;;;;;;;;;;;-4.75;100.00;96298.66;1030879;28;19922;-73
2022/03/09 00:38:18;;;;;;;;;;;;;;;-4.77;100.00;96300.56;1030799;28;19921;-71
2022/03/09 00:38:48;;;;;;;;;;;;;;;-4.81;100.00;96300.06;1035113;28;20383;-70
2022/03/09 00:39:18;;;;;;;;;;;;;;;-4.80;100.00;96300.88;1026780;28;19918;-70
2022/03/09 00:39:49;;;;;;;;;;;;;;;-4.77;100.00;96298.81;1030361;28;19914;-69
2022/03/09 00:40:19;;;;;;;;;;;;;;;-4.80;100.00;96295.75;1028265;28;19925;-70
2022/03/09 00:40:50;;;;;;;;;;;;;;;-4.80;100.00;96301.66;1026552;28;19952;-70
2022/03/09 00:41:20;;;;;;;;;;;;;;;-4.78;100.00;96306.66;1034471;28;19918;-71
2022/03/09 00:41:50;;;;;;;;;;;;;;;-4.81;100.00;96305.19;1030704;28;20327;-70
2022/03/09 00:42:21;;;;;;;;;;;;;;;-4.78;100.00;96302.31;1030653;28;19975;-70
2022/03/09 00:42:51;;;;;;;;;;;;;;;-4.75;100.00;96303.78;1030787;28;20017;-71
2022/03/09 00:43:21;;;;;;;;;;;;;;;-4.74;100.00;96302.81;1034501;28;19928;-70
2022/03/09 00:43:52;;;;;;;;;;;;;;;-4.76;100.00;96304.75;1034805;28;19918;-71
2022/03/09 00:44:22;;;;;;;;;;;;;;;-4.73;100.00;96304.41;1034569;28;19921;-71
2022/03/09 00:44:52;;;;;;;;;;;;;;;-4.77;100.00;96310.81;1034461;28;19928;-70
2022/03/09 00:45:25;;;;;;;;;;;;;;;-4.77;100.00;96305.69;1030605;28;19929;-71
2022/03/09 00:45:55;;;;;;;;;;;;;;;-4.77;100.00;96300.56;1030450;28;19922;-70
2022/03/09 00:46:29;;;;;;;;;;;;;;;-4.74;100.00;96305.38;1031169;28;19918;-71
2022/03/09 00:46:59;;;;;;;;;;;;;;;-4.77;100.00;96305.69;1035514;28;20701;-70
2022/03/09 00:47:29;;;;;;;;;;;;;;;-4.74;100.00;96300.25;1034812;28;19929;-71
2022/03/09 00:48:00;;;;;;;;;;;;;;;-4.74;100.00;96306.19;1034675;28;19936;-70
2022/03/09 00:48:30;;;;;;;;;;;;;;;-4.72;100.00;96302.69;1034218;28;20379;-73
2022/03/09 00:49:03;;;;;;;;;;;;;;;-4.68;100.00;96302.22;1030703;28;19924;-70
2022/03/09 00:49:34;;;;;;;;;;;;;;;-4.70;100.00;96301.56;1026591;28;19961;-69
2022/03/09 00:50:04;;;;;;;;;;;;;;;-4.69;100.00;96302.34;1028755;28;19918;-71
2022/03/09 00:50:35;;;;;;;;;;;;;;;-4.71;100.00;96297.41;1024287;28;20374;-70
2022/03/09 00:51:05;;;;;;;;;;;;;;;-4.72;100.00;96298.34;1024805;28;20324;-71
2022/03/09 00:51:36;;;;;;;;;;;;;;;-4.70;100.00;96301.56;1023065;29;19925;-70
2022/03/09 00:52:06;;;;;;;;;;;;;;;-4.69;100.00;96290.38;1023120;29;20316;-71
2022/03/09 00:52:37;;;;;;;;;;;;;;;-4.68;100.00;96298.84;1018814;28;19929;-71
2022/03/09 00:53:07;;;;;;;;;;;;;;;-4.66;100.00;96297.75;1026841;28;19918;-69
2022/03/09 00:53:38;;;;;;;;;;;;;;;-4.65;100.00;96289.09;1030848;28;19996;-71
2022/03/09 00:54:08;;;;;;;;;;;;;;;-4.65;100.00;96299.34;1031377;28;19920;-71
2022/03/09 00:54:38;;;;;;;;;;;;;;;-4.60;100.00;96297.13;1026950;28;20513;-70
2022/03/09 00:55:08;;;;;;;;;;;;;;;-4.61;100.00;96290.41;1030837;28;19914;-71
2022/03/09 00:55:39;;;;;;;;;;;;;;;-4.63;100.00;96288.94;1027094;28;19914;-70
2022/03/09 00:56:09;;;;;;;;;;;;;;;-4.62;100.00;96293.91;1027295;28;19914;-71
2022/03/09 00:56:42;;;;;;;;;;;;;;;-4.62;100.00;96285.44;1034448;28;19967;-71
2022/03/09 00:57:13;;;;;;;;;;;;;;;-4.67;100.00;96288.44;1035309;28;20008;-69
2022/03/09 00:57:43;;;;;;;;;;;;;;;-4.68;100.00;96293.72;1030803;28;19972;-71
2022/03/09 00:58:16;;;;;;;;;;;;;;;-4.61;100.00;96285.28;1022749;29;20496;-70
2022/03/09 00:58:48;;;;;;;;;;;;;;;-4.61;100.00;96290.41;1022452;28;19970;-70
2022/03/09 00:59:18;;;;;;;;;;;;;;;-4.55;100.00;96286.44;1019752;28;19915;-71
2022/03/09 00:59:48;;;;;;;;;;;;;;;-4.57;100.00;96290.88;1027910;28;20343;-70
2022/03/09 01:00:19;;;;;;;;;;;;;;;-4.53;100.00;96289.63;1029893;28;19918;-71
2022/03/09 01:00:49;;;;;;;;;;;;;;;-4.53;100.00;96292.19;1030482;28;19914;-70
2022/03/09 01:01:19;;;;;;;;;;;;;;;-4.53;100.00;96287.06;1030661;28;19961;-70
2022/03/09 01:01:50;;;;;;;;;;;;;;;-4.55;100.00;96297.47;1026664;28;19922;-70
2022/03/09 01:02:20;;;;;;;;;;;;;;;-4.53;100.00;96287.88;1021650;28;19918;-71
2022/03/09 01:02:50;;;;;;;;;;;;;;;-4.57;100.00;96286.56;1018109;29;19919;-71
2022/03/09 01:03:21;;;;;;;;;;;;;;;-4.58;100.00;96291.84;1022322;29;20612;-70
2022/03/09 01:03:51;;;;;;;;;;;;;;;-4.61;100.00;96284.47;1022667;29;20088;-70
2022/03/09 01:04:21;;;;;;;;;;;;;;;-4.63;100.00;96281.25;1020701;29;19961;-70
2022/03/09 01:04:51;;;;;;;;;;;;;;;-4.64;100.00;96285.59;1026624;28;19917;-71
2022/03/09 01:05:22;;;;;;;;;;;;;;;-4.67;100.00;96279.97;1022335;29;19964;-72
2022/03/09 01:05:52;;;;;;;;;;;;;;;-4.69;100.00;96279.31;1022875;29;19958;-71
2022/03/09 01:06:22;;;;;;;;;;;;;;;-4.74;100.00;96279.78;1019098;29;20320;-71
2022/03/09 01:06:52;;;;;;;;;;;;;;;-4.73;100.00;96286.50;1018822;29;19919;-69
2022/03/09 01:07:23;;;;;;;;;;;;;;;-4.71;100.00;96279.47;1022685;29;20404;-71
2022/03/09 01:07:53;;;;;;;;;;;;;;;-4.72;100.00;96280.44;1026698;28;19914;-71
2022/03/09 01:08:23;;;;;;;;;;;;;;;-4.77;100.00;96280.09;1026697;28;19918;-71
2022/03/09 01:08:54;;;;;;;;;;;;;;;-4.74;100.00;96274.66;1026420;28;20528;-71
2022/03/09 01:09:25;;;;;;;;;;;;;;;-4.72;100.00;96277.88;1024879;28;19918;-71
2022/03/09 01:09:57;;;;;;;;;;;;;;;-4.73;100.00;96276.25;1029995;28;20300;-71
2022/03/09 01:10:27;;;;;;;;;;;;;;;-4.73;100.00;96276.25;1031796;28;19929;-73
2022/03/09 01:10:57;;;;;;;;;;;;;;;-4.76;100.00;96274.03;1026629;28;20475;-70
2022/03/09 01:11:31;;;;;;;;;;;;;;;-4.77;100.00;96282.66;1030571;28;20008;-71
2022/03/09 01:12:01;;;;;;;;;;;;;;;-4.78;100.00;96279.28;1022470;28;19930;-71
2022/03/09 01:12:31;;;;;;;;;;;;;;;-4.78;100.00;96274.16;1023552;28;19926;-72
2022/03/09 01:13:02;;;;;;;;;;;;;;;-4.79;100.00;96287.94;1030513;28;19925;-70
2022/03/09 01:13:32;;;;;;;;;;;;;;;-4.79;100.00;96282.00;1026625;28;19997;-71
2022/03/09 01:14:05;;;;;;;;;;;;;;;-4.85;100.00;96272.38;1030376;28;19914;-70
2022/03/09 01:14:36;;;;;;;;;;;;;;;-4.89;100.00;96274.44;1026586;28;20042;-70
2022/03/09 01:15:06;;;;;;;;;;;;;;;-4.90;100.00;96275.38;1022582;29;19974;-70
2022/03/09 01:15:36;;;;;;;;;;;;;;;-4.88;100.00;96277.81;1022679;28;19922;-72
2022/03/09 01:16:07;;;;;;;;;;;;;;;-4.85;100.00;96282.63;1027004;28;19926;-70
2022/03/09 01:16:37;;;;;;;;;;;;;;;-4.92;100.00;96277.31;1030513;28;19917;-73
2022/03/09 01:17:07;;;;;;;;;;;;;;;-4.91;100.00;96278.09;1026632;28;20102;-70
2022/03/09 01:17:38;;;;;;;;;;;;;;;-4.91;100.00;96280.66;1026296;28;19957;-70
2022/03/09 01:18:08;;;;;;;;;;;;;;;-4.96;100.00;96283.69;1022629;29;19919;-71
2022/03/09 01:18:38;;;;;;;;;;;;;;;-4.99;100.00;96273.75;1022471;29;20254;-71
2022/03/09 01:19:08;;;;;;;;;;;;;;;-4.97;100.00;96280.31;1022452;29;19958;-71
2022/03/09 01:19:39;;;;;;;;;;;;;;;-4.95;100.00;96281.94;1029853;28;19922;-72
2022/03/09 01:20:09;;;;;;;;;;;;;;;-4.92;100.00;96286.75;1038763;28;20409;-72
2022/03/09 01:20:40;;;;;;;;;;;;;;;-4.91;100.00;96285.78;1029750;28;20120;-71
2022/03/09 01:21:10;;;;;;;;;;;;;;;-4.95;100.00;96287.84;1026464;28;20443;-71
2022/03/09 01:21:40;;;;;;;;;;;;;;;-4.90;100.00;96289.94;1022336;29;20341;-73
2022/03/09 01:22:10;;;;;;;;;;;;;;;-4.82;100.00;96285.69;1014588;29;19975;-71
2022/03/09 01:22:41;;;;;;;;;;;;;;;-4.82;100.00;96283.13;1023030;28;19998;-73
2022/03/09 01:23:11;;;;;;;;;;;;;;;-4.86;100.00;96286.13;1022708;29;19949;-70
2022/03/09 01:23:41;;;;;;;;;;;;;;;-4.90;100.00;96280.50;1026342;28;19918;-71
2022/03/09 01:24:12;;;;;;;;;;;;;;;-4.95;100.00;96287.06;1030616;28;20603;-71
2022/03/09 01:24:42;;;;;;;;;;;;;;;-5.00;100.00;96285.75;1026286;28;20502;-70
2022/03/09 01:25:12;;;;;;;;;;;;;;;-5.05;100.00;96287.94;1022519;29;19925;-70
2022/03/09 01:25:43;;;;;;;;;;;;;;;-5.06;100.00;96286.34;1026404;28;19997;-73
2022/03/09 01:26:13;;;;;;;;;;;;;;;-5.09;100.00;96286.66;1024633;28;19914;-69
2022/03/09 01:26:43;;;;;;;;;;;;;;;-5.09;100.00;96280.75;1026631;28;19973;-71
2022/03/09 01:27:14;;;;;;;;;;;;;;;-5.10;100.00;96282.47;1034601;28;20645;-70
2022/03/09 01:27:44;;;;;;;;;;;;;;;-5.13;100.00;96284.53;1034581;28;19913;-71
2022/03/09 01:28:14;;;;;;;;;;;;;;;-5.11;100.00;96280.09;1038555;28;19928;-71
2022/03/09 01:28:44;;;;;;;;;;;;;;;-5.10;100.00;96274.81;1038703;28;20330;-71
2022/03/09 01:29:15;;;;;;;;;;;;;;;-5.10;100.00;96282.47;1034543;28;20399;-72
2022/03/09 01:29:45;;;;;;;;;;;;;;;-5.26;100.00;96244.03;1038291;28;19917;-70
2022/03/09 01:30:15;;;;;;;;;;;;;;;-5.08;100.00;96267.78;1034590;28;19913;-72
2022/03/09 01:30:46;;;;;;;;;;;;;;;-5.10;100.00;96277.34;1029846;28;20311;-70
2022/03/09 01:31:19;;;;;;;;;;;;;;;-5.12;100.00;96271.59;1030245;28;20407;-71
2022/03/09 01:31:49;;;;;;;;;;;;;;;-5.10;100.00;96274.81;1026929;28;20439;-71
2022/03/09 01:32:21;;;;;;;;;;;;;;;-5.11;100.00;96275.75;1026869;28;19995;-71
2022/03/09 01:32:52;;;;;;;;;;;;;;;-5.07;100.00;96274.50;1031038;28;19914;-71
2022/03/09 01:33:22;;;;;;;;;;;;;;;-5.07;100.00;96269.38;1030682;28;19918;-71
2022/03/09 01:33:52;;;;;;;;;;;;;;;-5.14;100.00;96273.50;1034833;28;20386;-71
2022/03/09 01:34:22;;;;;;;;;;;;;;;-5.15;100.00;96266.00;1030418;28;19921;-71
2022/03/09 01:34:53;;;;;;;;;;;;;;;-5.20;100.00;96271.53;1026335;28;19918;-70
2022/03/09 01:35:23;;;;;;;;;;;;;;;-5.25;100.00;96271.22;1030590;28;20426;-71
2022/03/09 01:35:56;;;;;;;;;;;;;;;-5.24;100.00;96271.03;1026443;28;20158;-70
2022/03/09 01:36:26;;;;;;;;;;;;;;;-5.27;100.00;96275.66;1034635;28;20572;-72
2022/03/09 01:36:57;;;;;;;;;;;;;;;-5.30;100.00;96278.53;1034698;28;19987;-70
2022/03/09 01:37:27;;;;;;;;;;;;;;;-5.28;100.00;96271.50;1035001;28;19921;-70
2022/03/09 01:37:57;;;;;;;;;;;;;;;-5.34;100.00;96272.09;1038614;28;19917;-72
2022/03/09 01:38:28;;;;;;;;;;;;;;;-5.38;100.00;96270.81;1034400;28;19917;-69
2022/03/09 01:38:58;;;;;;;;;;;;;;;-5.40;100.00;96270.94;1030554;28;19914;-70
2022/03/09 01:39:28;;;;;;;;;;;;;;;-5.38;100.00;96270.81;1030503;28;19921;-71
2022/03/09 01:39:59;;;;;;;;;;;;;;;-5.39;100.00;96270.00;1031432;28;20279;-71
2022/03/09 01:40:29;;;;;;;;;;;;;;;-5.40;100.00;96270.16;1033772;28;19929;-70
2022/03/09 01:41:02;;;;;;;;;;;;;;;-5.45;100.00;96271.41;1038954;28;20416;-69
2022/03/09 01:41:32;;;;;;;;;;;;;;;-5.46;100.00;96274.91;1038679;28;19932;-71
2022/03/09 01:42:02;;;;;;;;;;;;;;;-5.50;100.00;96281.28;1038645;28;19936;-71
2022/03/09 01:42:33;;;;;;;;;;;;;;;-5.52;100.00;96272.16;1038357;28;19923;-72
2022/03/09 01:43:03;;;;;;;;;;;;;;;-5.50;100.00;96278.72;1026385;28;20346;-71
2022/03/09 01:43:34;;;;;;;;;;;;;;;-5.50;100.00;96277.91;1022532;29;19958;-71
2022/03/09 01:44:11;;;;;;;;;;;;;;;-5.45;100.00;96273.97;1018584;29;20534;-70
2022/03/09 01:44:41;;;;;;;;;;;;;;;-5.39;100.00;96274.31;1019099;29;20052;-71
2022/03/09 01:45:12;;;;;;;;;;;;;;;-5.38;100.00;96276.72;1027392;28;20432;-71
2022/03/09 01:45:43;;;;;;;;;;;;;;;-5.33;100.00;96276.25;1026593;28;19922;-70
2022/03/09 01:46:13;;;;;;;;;;;;;;;-5.35;100.00;96273.06;1018632;28;19954;-72
2022/03/09 01:46:45;;;;;;;;;;;;;;;-5.34;100.00;96275.47;1022209;29;20336;-71
2022/03/09 01:47:15;;;;;;;;;;;;;;;-5.36;100.00;96274.03;1022734;28;19927;-70
2022/03/09 01:47:45;;;;;;;;;;;;;;;-5.35;100.00;96265.41;1022951;28;19915;-70
2022/03/09 01:48:15;;;;;;;;;;;;;;;-5.36;100.00;96274.81;1030144;28;20318;-70
2022/03/09 01:48:46;;;;;;;;;;;;;;;-5.67;100.00;96225.88;1029751;28;19958;-71
2022/03/09 01:49:16;;;;;;;;;;;;;;;-5.41;100.00;96271.91;1026825;28;19922;-70
2022/03/09 01:49:46;;;;;;;;;;;;;;;-5.43;100.00;96268.72;1031391;28;20032;-71
2022/03/09 01:50:17;;;;;;;;;;;;;;;-5.42;100.00;96269.50;1025055;28;20391;-67
2022/03/09 01:50:47;;;;;;;;;;;;;;;-5.47;100.00;96268.19;1026842;28;19935;-72
2022/03/09 01:51:17;;;;;;;;;;;;;;;-5.50;100.00;96265.13;1035254;28;19940;-71
2022/03/09 01:51:48;;;;;;;;;;;;;;;-5.50;100.00;96268.50;1031069;28;20015;-71
2022/03/09 01:52:18;;;;;;;;;;;;;;;-5.42;100.00;96261.84;1031285;28;19922;-71
2022/03/09 01:52:49;;;;;;;;;;;;;;;-5.41;100.00;96264.22;1031050;28;19972;-70
2022/03/09 01:53:19;;;;;;;;;;;;;;;-5.41;100.00;96264.22;1028858;28;19945;-70
2022/03/09 01:53:49;;;;;;;;;;;;;;;-5.46;100.00;96264.69;1029592;28;20178;-71
2022/03/09 01:54:23;;;;;;;;;;;;;;;-5.48;100.00;96266.59;1027288;28;19922;-68
2022/03/09 01:54:54;;;;;;;;;;;;;;;-5.51;100.00;96266.09;1026786;28;19918;-71
2022/03/09 01:55:24;;;;;;;;;;;;;;;-5.52;100.00;96260.16;1027683;28;19914;-70
2022/03/09 01:55:55;;;;;;;;;;;;;;;-5.55;100.00;96264.78;1024020;29;19922;-70
2022/03/09 01:56:25;;;;;;;;;;;;;;;-5.56;100.00;96266.53;1016129;29;19911;-70
2022/03/09 01:56:56;;;;;;;;;;;;;;;-5.59;100.00;96263.47;1018671;29;19998;-72
2022/03/09 01:57:26;;;;;;;;;;;;;;;-5.64;100.00;96258.78;1019692;29;19938;-71
2022/03/09 01:57:56;;;;;;;;;;;;;;;-5.62;100.00;96264.56;1023795;28;19953;-71
2022/03/09 01:58:27;;;;;;;;;;;;;;;-5.63;100.00;96262.97;1031807;28;19914;-70
2022/03/09 01:58:57;;;;;;;;;;;;;;;-5.61;100.00;96266.16;1032488;28;20509;-71
2022/03/09 01:59:27;;;;;;;;;;;;;;;-5.63;100.00;96259.59;1027893;28;19925;-69
2022/03/09 01:59:58;;;;;;;;;;;;;;;-5.53;100.00;96268.00;1028038;28;19919;-70
2022/03/09 02:00:28;;;;;;;;;;;;;;;-5.56;100.00;96271.66;1032419;28;20374;-70
2022/03/09 02:00:58;;;;;;;;;;;;;;;-5.61;100.00;96265.38;1027948;28;19969;-72
2022/03/09 02:01:29;;;;;;;;;;;;;;;-5.67;100.00;96261.66;1036073;28;19917;-70
2022/03/09 02:01:59;;;;;;;;;;;;;;;-5.66;100.00;96263.28;1031837;28;19949;-71
2022/03/09 02:02:30;;;;;;;;;;;;;;;-5.63;100.00;96262.97;1028040;28;19917;-70
2022/03/09 02:03:00;;;;;;;;;;;;;;;-5.70;100.00;96260.22;1032039;28;20365;-71
2022/03/09 02:03:30;;;;;;;;;;;;;;;-5.73;100.00;96263.06;1027851;28;19918;-71
2022/03/09 02:04:01;;;;;;;;;;;;;;;-5.74;100.00;96271.66;1027912;28;19914;-70
2022/03/09 02:04:31;;;;;;;;;;;;;;;-5.76;100.00;96265.91;1028106;28;19910;-73
2022/03/09 02:05:05;;;;;;;;;;;;;;;-5.76;100.00;96270.22;1032010;28;20326;-71
2022/03/09 02:05:35;;;;;;;;;;;;;;;-5.72;100.00;96264.66;1035836;28;20025;-70
2022/03/09 02:06:05;;;;;;;;;;;;;;;-5.65;100.00;96262.31;1028400;28;20441;-70
2022/03/09 02:06:36;;;;;;;;;;;;;;;-5.61;100.00;96262.81;1028023;28;20407;-71
2022/03/09 02:07:09;;;;;;;;;;;;;;;-5.64;100.00;96263.91;1031695;28;19913;-70
2022/03/09 02:10:09;;;;;;;;;;;;;;;-5.64;100.00;96255.44;1032130;28;19961;-70
2022/03/09 02:10:39;;;;;;;;;;;;;;;-5.64;100.00;96261.34;1036078;28;19945;-70
2022/03/09 02:11:10;;;;;;;;;;;;;;;-5.66;100.00;96260.72;1036219;28;19910;-70
2022/03/09 02:11:40;;;;;;;;;;;;;;;-5.65;100.00;96254.66;1027850;28;19922;-71
2022/03/09 02:12:11;;;;;;;;;;;;;;;-5.63;100.00;96257.88;1023951;29;19953;-70
2022/03/09 02:12:41;;;;;;;;;;;;;;;-5.64;100.00;96256.25;1020309;29;20338;-70
2022/03/09 02:13:12;;;;;;;;;;;;;;;-5.65;100.00;96259.75;1024038;28;19934;-71
2022/03/09 02:13:42;;;;;;;;;;;;;;;-5.66;100.00;96258.16;1027672;28;19918;-70
2022/03/09 02:14:27;;;;;;;;;;;;;;;-5.70;100.00;96254.28;1024050;28;19915;-70
2022/03/09 02:14:58;;;;;;;;;;;;;;;-5.71;100.00;96252.69;1028019;28;19997;-71
2022/03/09 02:15:28;;;;;;;;;;;;;;;-5.73;100.00;96263.06;1026000;28;19938;-70
2022/03/09 02:15:58;;;;;;;;;;;;;;;-5.70;100.00;96257.66;1027788;28;20391;-70
2022/03/09 02:16:28;;;;;;;;;;;;;;;-5.66;100.00;96259.91;1032100;28;19925;-70
2022/03/09 02:17:00;;;;;;;;;;;;;;;-5.66;100.00;96263.28;1031997;28;19914;-71
2022/03/09 02:17:30;;;;;;;;;;;;;;;-5.71;100.00;96262.91;1034410;28;19918;-71
2022/03/09 02:18:00;;;;;;;;;;;;;;;-5.67;100.00;96266.75;1040004;28;19917;-71
2022/03/09 02:18:31;;;;;;;;;;;;;;;-5.66;100.00;96260.72;1040227;28;19917;-72
2022/03/09 02:19:02;;;;;;;;;;;;;;;-5.63;100.00;96262.97;1042141;28;19951;-70
2022/03/09 02:19:32;;;;;;;;;;;;;;;-5.64;100.00;96269.03;1039998;28;20040;-70
2022/03/09 02:20:05;;;;;;;;;;;;;;;-5.66;100.00;96267.59;1040090;28;19909;-71
2022/03/09 02:20:36;;;;;;;;;;;;;;;-5.72;100.00;96263.84;1039472;28;19910;-69
2022/03/09 02:21:07;;;;;;;;;;;;;;;-5.74;100.00;96268.31;1040112;28;20359;-71
2022/03/09 02:21:38;;;;;;;;;;;;;;;-5.72;100.00;96263.84;1040181;28;19920;-71
2022/03/09 02:22:23;;;;;;;;;;;;;;;-5.73;100.00;96262.25;1036069;28;20228;-72
2022/03/09 02:22:53;;;;;;;;;;;;;;;-5.76;100.00;96258.25;1035664;28;19910;-69
2022/03/09 02:23:24;;;;;;;;;;;;;;;-5.73;100.00;96268.16;1036102;28;19964;-69
2022/03/09 02:23:55;;;;;;;;;;;;;;;-5.71;100.00;96268.00;1029772;28;19922;-71
2022/03/09 02:24:25;;;;;;;;;;;;;;;-5.71;100.00;96265.47;1031918;28;20696;-71
2022/03/09 02:24:56;;;;;;;;;;;;;;;-5.73;100.00;96272.50;1027926;28;19914;-72
2022/03/09 02:25:26;;;;;;;;;;;;;;;-5.74;100.00;96258.88;1023981;28;19910;-70
2022/03/09 02:25:56;;;;;;;;;;;;;;;-5.79;100.00;96263.66;1031886;28;20015;-71
2022/03/09 02:26:27;;;;;;;;;;;;;;;-5.79;100.00;96267.97;1035806;28;19914;-70
2022/03/09 02:26:57;;;;;;;;;;;;;;;-5.78;100.00;96264.44;1036006;28;19914;-71
2022/03/09 02:27:27;;;;;;;;;;;;;;;-5.81;100.00;96264.75;1035954;28;19913;-71
2022/03/09 02:27:59;;;;;;;;;;;;;;;-5.85;100.00;96263.44;1035759;28;19909;-71
2022/03/09 02:28:29;;;;;;;;;;;;;;;-5.87;100.00;96262.75;1036056;28;19967;-70
2022/03/09 02:29:00;;;;;;;;;;;;;;;-5.90;100.00;96257.94;1027900;28;19969;-71
2022/03/09 02:29:30;;;;;;;;;;;;;;;-5.94;100.00;96260.81;1031690;28;19918;-72
2022/03/09 02:30:01;;;;;;;;;;;;;;;-5.89;100.00;96259.56;1023907;29;20356;-72
2022/03/09 02:30:31;;;;;;;;;;;;;;;-5.84;100.00;96254.81;1019128;29;20393;-71
2022/03/09 02:31:01;;;;;;;;;;;;;;;-5.81;100.00;96264.75;1019922;29;19969;-72
2022/03/09 02:31:32;;;;;;;;;;;;;;;-5.80;100.00;96253.56;1023799;28;19975;-72
2022/03/09 02:32:02;;;;;;;;;;;;;;;-5.76;100.00;96255.69;1023913;29;19922;-71
2022/03/09 02:32:32;;;;;;;;;;;;;;;-5.74;100.00;96258.09;1031798;28;19921;-70
2022/03/09 02:33:03;;;;;;;;;;;;;;;-5.77;100.00;96255.81;1031829;28;19962;-70
2022/03/09 02:33:33;;;;;;;;;;;;;;;-5.78;100.00;96249.91;1031893;28;19925;-69
2022/03/09 02:34:03;;;;;;;;;;;;;;;-5.76;100.00;96258.25;1031904;28;19918;-70
2022/03/09 02:34:34;;;;;;;;;;;;;;;-5.75;100.00;96256.47;1023589;28;19938;-71
2022/03/09 02:35:04;;;;;;;;;;;;;;;-5.77;100.00;96251.53;1027907;28;20355;-71
2022/03/09 02:35:34;;;;;;;;;;;;;;;-5.78;100.00;96254.22;1028003;28;20351;-71
2022/03/09 02:36:05;;;;;;;;;;;;;;;-5.76;100.00;96257.44;1031969;28;19921;-70
2022/03/09 02:36:35;;;;;;;;;;;;;;;-5.72;100.00;96253.63;1035583;28;19913;-71
2022/03/09 02:37:06;;;;;;;;;;;;;;;-5.73;100.00;96252.03;1032126;28;19992;-72
2022/03/09 02:37:36;;;;;;;;;;;;;;;-5.73;100.00;96254.59;1027871;28;20279;-72
2022/03/09 02:38:07;;;;;;;;;;;;;;;-5.72;100.00;96258.75;1023899;28;19919;-70
2022/03/09 02:38:37;;;;;;;;;;;;;;;-5.74;100.00;96255.53;1030063;28;19957;-71
2022/03/09 02:39:07;;;;;;;;;;;;;;;-5.73;100.00;96257.16;1029287;28;20356;-70
2022/03/09 02:39:38;;;;;;;;;;;;;;;-5.71;100.00;96250.13;1025428;28;20392;-72